sensor_id;sensor_type;location;lat;lon;timestamp;P1;durP1;ratioP1;P2;durP2;ratioP2
4272;SDS011;63887;53.656;9.810;2022-11-15T00:01:53;67.87;;;37.33;;
4272;SDS011;63887;53.656;9.810;2022-11-15T00:04:20;67.63;;;38.43;;
4272;SDS011;63887;53.656;9.810;2022-11-15T00:06:46;79.63;;;41.40;;
4272;SDS011;63887;53.656;9.810;2022-11-15T00:09:13;68.07;;;37.40;;
4272;SDS011;63887;53.656;9.810;2022-11-15T00:11:39;73.53;;;39.70;;
4272;SDS011;63887;53.656;9.810;2022-11-15T00:14:05;74.20;;;40.47;;
4272;SDS011;63887;53.656;9.810;2022-11-15T00:16:33;76.17;;;38.93;;
4272;SDS011;63887;53.656;9.810;2022-11-15T00:19:00;75.30;;;41.00;;
4272;SDS011;63887;53.656;9.810;2022-11-15T00:21:26;71.10;;;40.10;;
4272;SDS011;63887;53.656;9.810;2022-11-15T00:23:53;69.70;;;38.37;;
4272;SDS011;63887;53.656;9.810;2022-11-15T00:26:19;69.20;;;36.07;;
4272;SDS011;63887;53.656;9.810;2022-11-15T00:28:45;61.93;;;35.17;;
4272;SDS011;63887;53.656;9.810;2022-11-15T00:31:12;67.67;;;36.63;;
4272;SDS011;63887;53.656;9.810;2022-11-15T00:33:43;66.30;;;37.53;;
4272;SDS011;63887;53.656;9.810;2022-11-15T00:36:10;67.60;;;38.67;;
4272;SDS011;63887;53.656;9.810;2022-11-15T00:38:37;68.37;;;37.70;;
4272;SDS011;63887;53.656;9.810;2022-11-15T00:41:06;73.60;;;37.70;;
4272;SDS011;63887;53.656;9.810;2022-11-15T00:43:33;62.53;;;36.57;;
4272;SDS011;63887;53.656;9.810;2022-11-15T00:45:59;66.90;;;37.33;;
4272;SDS011;63887;53.656;9.810;2022-11-15T00:48:27;79.57;;;38.87;;
4272;SDS011;63887;53.656;9.810;2022-11-15T00:50:55;67.07;;;39.67;;
4272;SDS011;63887;53.656;9.810;2022-11-15T00:53:21;67.57;;;39.63;;
4272;SDS011;63887;53.656;9.810;2022-11-15T00:55:48;67.13;;;37.63;;
4272;SDS011;63887;53.656;9.810;2022-11-15T00:58:14;61.83;;;34.70;;
4272;SDS011;63887;53.656;9.810;2022-11-15T01:00:40;70.83;;;36.83;;
4272;SDS011;63887;53.656;9.810;2022-11-15T01:03:07;67.10;;;36.73;;
4272;SDS011;63887;53.656;9.810;2022-11-15T01:05:33;76.20;;;36.80;;
4272;SDS011;63887;53.656;9.810;2022-11-15T01:08:04;63.93;;;36.30;;
4272;SDS011;63887;53.656;9.810;2022-11-15T01:10:30;60.00;;;36.17;;
4272;SDS011;63887;53.656;9.810;2022-11-15T01:12:57;59.87;;;34.67;;
4272;SDS011;63887;53.656;9.810;2022-11-15T01:15:23;60.20;;;34.90;;
4272;SDS011;63887;53.656;9.810;2022-11-15T01:17:49;69.50;;;34.90;;
4272;SDS011;63887;53.656;9.810;2022-11-15T01:20:16;62.23;;;34.40;;
4272;SDS011;63887;53.656;9.810;2022-11-15T01:22:43;58.53;;;35.00;;
4272;SDS011;63887;53.656;9.810;2022-11-15T01:25:11;61.93;;;33.13;;
4272;SDS011;63887;53.656;9.810;2022-11-15T01:27:38;62.40;;;35.40;;
4272;SDS011;63887;53.656;9.810;2022-11-15T01:30:05;53.90;;;33.33;;
4272;SDS011;63887;53.656;9.810;2022-11-15T01:32:33;58.97;;;34.10;;
4272;SDS011;63887;53.656;9.810;2022-11-15T01:34:59;56.90;;;33.70;;
4272;SDS011;63887;53.656;9.810;2022-11-15T01:37:26;63.70;;;32.93;;
4272;SDS011;63887;53.656;9.810;2022-11-15T01:39:52;57.53;;;32.80;;
4272;SDS011;63887;53.656;9.810;2022-11-15T01:42:20;60.53;;;36.87;;
4272;SDS011;63887;53.656;9.810;2022-11-15T01:44:47;62.20;;;35.30;;
4272;SDS011;63887;53.656;9.810;2022-11-15T01:47:15;55.90;;;33.27;;
4272;SDS011;63887;53.656;9.810;2022-11-15T01:49:45;58.80;;;33.07;;
4272;SDS011;63887;53.656;9.810;2022-11-15T01:52:19;64.97;;;33.90;;
4272;SDS011;63887;53.656;9.810;2022-11-15T01:54:48;51.60;;;32.60;;
4272;SDS011;63887;53.656;9.810;2022-11-15T01:57:20;58.30;;;33.77;;
4272;SDS011;63887;53.656;9.810;2022-11-15T01:59:47;62.30;;;33.63;;
4272;SDS011;63887;53.656;9.810;2022-11-15T02:02:13;58.57;;;33.17;;
4272;SDS011;63887;53.656;9.810;2022-11-15T02:04:41;63.00;;;34.70;;
4272;SDS011;63887;53.656;9.810;2022-11-15T02:07:09;65.93;;;35.43;;
4272;SDS011;63887;53.656;9.810;2022-11-15T02:09:39;59.53;;;34.37;;
4272;SDS011;63887;53.656;9.810;2022-11-15T02:12:06;51.83;;;32.07;;
4272;SDS011;63887;53.656;9.810;2022-11-15T02:14:36;56.27;;;32.43;;
4272;SDS011;63887;53.656;9.810;2022-11-15T02:17:09;59.10;;;34.50;;
4272;SDS011;63887;53.656;9.810;2022-11-15T02:22:55;63.97;;;33.10;;
4272;SDS011;63887;53.656;9.810;2022-11-15T02:25:40;53.80;;;32.25;;
4272;SDS011;63887;53.656;9.810;2022-11-15T02:28:21;57.57;;;33.53;;
4272;SDS011;63887;53.656;9.810;2022-11-15T02:31:02;49.03;;;32.10;;
4272;SDS011;63887;53.656;9.810;2022-11-15T02:33:34;52.67;;;33.57;;
4272;SDS011;63887;53.656;9.810;2022-11-15T02:36:09;59.37;;;33.47;;
4272;SDS011;63887;53.656;9.810;2022-11-15T02:38:42;62.13;;;35.00;;
4272;SDS011;63887;53.656;9.810;2022-11-15T02:41:13;50.83;;;31.03;;
4272;SDS011;63887;53.656;9.810;2022-11-15T02:43:45;64.88;;;34.55;;
4272;SDS011;63887;53.656;9.810;2022-11-15T02:46:27;59.17;;;32.10;;
4272;SDS011;63887;53.656;9.810;2022-11-15T02:49:17;58.90;;;32.40;;
4272;SDS011;63887;53.656;9.810;2022-11-15T02:51:44;64.70;;;33.58;;
4272;SDS011;63887;53.656;9.810;2022-11-15T02:54:14;55.97;;;32.88;;
4272;SDS011;63887;53.656;9.810;2022-11-15T02:56:43;63.20;;;34.63;;
4272;SDS011;63887;53.656;9.810;2022-11-15T03:02:08;59.45;;;33.78;;
4272;SDS011;63887;53.656;9.810;2022-11-15T03:04:48;58.40;;;33.40;;
4272;SDS011;63887;53.656;9.810;2022-11-15T03:07:23;55.20;;;32.92;;
4272;SDS011;63887;53.656;9.810;2022-11-15T03:09:56;48.63;;;30.60;;
4272;SDS011;63887;53.656;9.810;2022-11-15T03:12:30;65.97;;;33.80;;
4272;SDS011;63887;53.656;9.810;2022-11-15T03:15:04;51.30;;;32.90;;
4272;SDS011;63887;53.656;9.810;2022-11-15T03:17:37;56.05;;;32.38;;
4272;SDS011;63887;53.656;9.810;2022-11-15T03:20:07;63.33;;;31.45;;
4272;SDS011;63887;53.656;9.810;2022-11-15T03:22:36;63.45;;;33.88;;
4272;SDS011;63887;53.656;9.810;2022-11-15T03:25:08;62.10;;;32.47;;
4272;SDS011;63887;53.656;9.810;2022-11-15T03:27:40;57.03;;;36.03;;
4272;SDS011;63887;53.656;9.810;2022-11-15T03:30:11;61.53;;;33.88;;
4272;SDS011;63887;53.656;9.810;2022-11-15T03:32:41;57.53;;;33.97;;
4272;SDS011;63887;53.656;9.810;2022-11-15T03:35:12;55.35;;;30.52;;
4272;SDS011;63887;53.656;9.810;2022-11-15T03:37:42;63.20;;;33.07;;
4272;SDS011;63887;53.656;9.810;2022-11-15T03:40:14;60.53;;;34.47;;
4272;SDS011;63887;53.656;9.810;2022-11-15T03:42:43;59.25;;;31.58;;
4272;SDS011;63887;53.656;9.810;2022-11-15T03:45:15;63.53;;;34.53;;
4272;SDS011;63887;53.656;9.810;2022-11-15T03:47:47;52.47;;;30.13;;
4272;SDS011;63887;53.656;9.810;2022-11-15T03:50:18;62.78;;;32.83;;
4272;SDS011;63887;53.656;9.810;2022-11-15T03:52:46;54.78;;;32.25;;
4272;SDS011;63887;53.656;9.810;2022-11-15T03:55:15;53.45;;;29.75;;
4272;SDS011;63887;53.656;9.810;2022-11-15T03:57:44;54.70;;;33.10;;
4272;SDS011;63887;53.656;9.810;2022-11-15T04:00:11;58.08;;;31.38;;
4272;SDS011;63887;53.656;9.810;2022-11-15T04:02:37;56.33;;;31.55;;
4272;SDS011;63887;53.656;9.810;2022-11-15T04:05:05;51.40;;;31.17;;
4272;SDS011;63887;53.656;9.810;2022-11-15T04:07:32;57.05;;;32.78;;
4272;SDS011;63887;53.656;9.810;2022-11-15T04:09:59;53.60;;;32.05;;
4272;SDS011;63887;53.656;9.810;2022-11-15T04:12:28;54.15;;;30.00;;
4272;SDS011;63887;53.656;9.810;2022-11-15T04:14:58;56.35;;;32.33;;
4272;SDS011;63887;53.656;9.810;2022-11-15T04:17:35;54.83;;;30.02;;
4272;SDS011;63887;53.656;9.810;2022-11-15T04:20:03;56.40;;;33.30;;
4272;SDS011;63887;53.656;9.810;2022-11-15T04:22:51;53.63;;;31.23;;
4272;SDS011;63887;53.656;9.810;2022-11-15T04:25:36;54.20;;;31.02;;
4272;SDS011;63887;53.656;9.810;2022-11-15T04:28:03;67.88;;;32.90;;
4272;SDS011;63887;53.656;9.810;2022-11-15T04:30:30;56.20;;;32.13;;
4272;SDS011;63887;53.656;9.810;2022-11-15T04:32:56;60.17;;;31.30;;
4272;SDS011;63887;53.656;9.810;2022-11-15T04:35:24;61.75;;;32.28;;
4272;SDS011;63887;53.656;9.810;2022-11-15T04:37:50;55.55;;;30.70;;
4272;SDS011;63887;53.656;9.810;2022-11-15T04:40:16;60.03;;;33.23;;
4272;SDS011;63887;53.656;9.810;2022-11-15T04:42:42;56.77;;;32.73;;
4272;SDS011;63887;53.656;9.810;2022-11-15T04:45:10;57.87;;;33.97;;
4272;SDS011;63887;53.656;9.810;2022-11-15T04:47:37;57.47;;;33.10;;
4272;SDS011;63887;53.656;9.810;2022-11-15T04:50:03;65.37;;;36.10;;
4272;SDS011;63887;53.656;9.810;2022-11-15T04:52:32;65.27;;;35.80;;
4272;SDS011;63887;53.656;9.810;2022-11-15T04:54:58;57.20;;;33.53;;
4272;SDS011;63887;53.656;9.810;2022-11-15T04:57:25;58.73;;;34.43;;
4272;SDS011;63887;53.656;9.810;2022-11-15T04:59:51;55.07;;;32.10;;
4272;SDS011;63887;53.656;9.810;2022-11-15T05:02:17;54.07;;;31.57;;
4272;SDS011;63887;53.656;9.810;2022-11-15T05:04:44;65.57;;;35.20;;
4272;SDS011;63887;53.656;9.810;2022-11-15T05:07:09;58.80;;;31.97;;
4272;SDS011;63887;53.656;9.810;2022-11-15T05:09:37;60.43;;;32.63;;
4272;SDS011;63887;53.656;9.810;2022-11-15T05:12:04;62.73;;;32.60;;
4272;SDS011;63887;53.656;9.810;2022-11-15T05:14:30;53.63;;;33.20;;
4272;SDS011;63887;53.656;9.810;2022-11-15T05:16:57;52.20;;;31.70;;
4272;SDS011;63887;53.656;9.810;2022-11-15T05:19:23;59.90;;;32.53;;
4272;SDS011;63887;53.656;9.810;2022-11-15T05:21:50;53.50;;;33.67;;
4272;SDS011;63887;53.656;9.810;2022-11-15T05:24:16;64.27;;;31.33;;
4272;SDS011;63887;53.656;9.810;2022-11-15T05:26:44;58.33;;;35.67;;
4272;SDS011;63887;53.656;9.810;2022-11-15T05:29:11;54.20;;;32.70;;
4272;SDS011;63887;53.656;9.810;2022-11-15T05:31:39;53.13;;;32.33;;
4272;SDS011;63887;53.656;9.810;2022-11-15T05:34:07;52.83;;;31.87;;
4272;SDS011;63887;53.656;9.810;2022-11-15T05:36:34;58.67;;;32.43;;
4272;SDS011;63887;53.656;9.810;2022-11-15T05:39:03;51.20;;;33.30;;
4272;SDS011;63887;53.656;9.810;2022-11-15T05:41:32;49.03;;;30.80;;
4272;SDS011;63887;53.656;9.810;2022-11-15T05:44:03;52.57;;;30.60;;
4272;SDS011;63887;53.656;9.810;2022-11-15T05:46:33;48.83;;;31.07;;
4272;SDS011;63887;53.656;9.810;2022-11-15T05:49:01;54.00;;;32.03;;
4272;SDS011;63887;53.656;9.810;2022-11-15T05:51:28;45.90;;;30.60;;
4272;SDS011;63887;53.656;9.810;2022-11-15T05:53:55;51.00;;;30.07;;
4272;SDS011;63887;53.656;9.810;2022-11-15T05:56:24;48.70;;;32.03;;
4272;SDS011;63887;53.656;9.810;2022-11-15T05:58:51;56.67;;;31.30;;
4272;SDS011;63887;53.656;9.810;2022-11-15T06:01:20;53.43;;;30.43;;
4272;SDS011;63887;53.656;9.810;2022-11-15T06:03:47;48.23;;;30.57;;
4272;SDS011;63887;53.656;9.810;2022-11-15T06:06:13;45.80;;;30.80;;
4272;SDS011;63887;53.656;9.810;2022-11-15T06:08:39;50.87;;;31.93;;
4272;SDS011;63887;53.656;9.810;2022-11-15T06:11:06;50.30;;;28.97;;
4272;SDS011;63887;53.656;9.810;2022-11-15T06:13:33;47.40;;;30.07;;
4272;SDS011;63887;53.656;9.810;2022-11-15T06:16:00;51.50;;;28.60;;
4272;SDS011;63887;53.656;9.810;2022-11-15T06:18:28;49.57;;;31.07;;
4272;SDS011;63887;53.656;9.810;2022-11-15T06:20:58;43.43;;;30.03;;
4272;SDS011;63887;53.656;9.810;2022-11-15T06:23:25;41.77;;;28.07;;
4272;SDS011;63887;53.656;9.810;2022-11-15T06:25:52;49.43;;;29.87;;
4272;SDS011;63887;53.656;9.810;2022-11-15T06:28:18;51.73;;;30.07;;
4272;SDS011;63887;53.656;9.810;2022-11-15T06:30:44;40.03;;;27.90;;
4272;SDS011;63887;53.656;9.810;2022-11-15T06:33:11;46.30;;;29.20;;
4272;SDS011;63887;53.656;9.810;2022-11-15T06:35:39;47.50;;;28.80;;
4272;SDS011;63887;53.656;9.810;2022-11-15T06:38:06;41.33;;;27.00;;
4272;SDS011;63887;53.656;9.810;2022-11-15T06:40:34;38.77;;;28.33;;
4272;SDS011;63887;53.656;9.810;2022-11-15T06:43:02;44.07;;;29.70;;
4272;SDS011;63887;53.656;9.810;2022-11-15T06:45:29;47.97;;;29.40;;
4272;SDS011;63887;53.656;9.810;2022-11-15T06:47:56;56.50;;;27.83;;
4272;SDS011;63887;53.656;9.810;2022-11-15T06:50:22;41.57;;;28.27;;
4272;SDS011;63887;53.656;9.810;2022-11-15T06:52:50;40.87;;;25.97;;
4272;SDS011;63887;53.656;9.810;2022-11-15T06:55:17;43.97;;;27.63;;
4272;SDS011;63887;53.656;9.810;2022-11-15T06:57:47;49.03;;;28.27;;
4272;SDS011;63887;53.656;9.810;2022-11-15T07:00:14;45.50;;;28.23;;
4272;SDS011;63887;53.656;9.810;2022-11-15T07:02:42;45.53;;;27.80;;
4272;SDS011;63887;53.656;9.810;2022-11-15T07:05:08;42.27;;;27.97;;
4272;SDS011;63887;53.656;9.810;2022-11-15T07:07:35;60.57;;;32.17;;
4272;SDS011;63887;53.656;9.810;2022-11-15T07:10:03;44.13;;;28.30;;
4272;SDS011;63887;53.656;9.810;2022-11-15T07:12:30;45.27;;;28.53;;
4272;SDS011;63887;53.656;9.810;2022-11-15T07:14:56;46.53;;;27.20;;
4272;SDS011;63887;53.656;9.810;2022-11-15T07:17:22;40.70;;;27.50;;
4272;SDS011;63887;53.656;9.810;2022-11-15T07:19:49;44.73;;;26.97;;
4272;SDS011;63887;53.656;9.810;2022-11-15T07:22:15;36.13;;;26.30;;
4272;SDS011;63887;53.656;9.810;2022-11-15T07:24:42;45.63;;;28.20;;
4272;SDS011;63887;53.656;9.810;2022-11-15T07:27:09;39.13;;;27.43;;
4272;SDS011;63887;53.656;9.810;2022-11-15T07:29:36;31.40;;;24.07;;
4272;SDS011;63887;53.656;9.810;2022-11-15T07:32:02;51.57;;;27.13;;
4272;SDS011;63887;53.656;9.810;2022-11-15T07:34:29;41.93;;;29.10;;
4272;SDS011;63887;53.656;9.810;2022-11-15T07:36:56;37.27;;;27.10;;
4272;SDS011;63887;53.656;9.810;2022-11-15T07:39:22;43.10;;;27.07;;
4272;SDS011;63887;53.656;9.810;2022-11-15T07:41:49;43.80;;;29.07;;
4272;SDS011;63887;53.656;9.810;2022-11-15T07:44:36;42.40;;;27.67;;
4272;SDS011;63887;53.656;9.810;2022-11-15T07:47:03;45.10;;;26.40;;
4272;SDS011;63887;53.656;9.810;2022-11-15T07:49:29;40.03;;;26.77;;
4272;SDS011;63887;53.656;9.810;2022-11-15T07:51:56;34.43;;;24.70;;
4272;SDS011;63887;53.656;9.810;2022-11-15T07:54:22;44.97;;;28.37;;
4272;SDS011;63887;53.656;9.810;2022-11-15T07:56:49;37.60;;;26.57;;
4272;SDS011;63887;53.656;9.810;2022-11-15T07:59:15;39.10;;;25.87;;
4272;SDS011;63887;53.656;9.810;2022-11-15T08:01:43;43.73;;;27.23;;
4272;SDS011;63887;53.656;9.810;2022-11-15T08:04:09;35.87;;;26.27;;
4272;SDS011;63887;53.656;9.810;2022-11-15T08:06:36;51.70;;;26.10;;
4272;SDS011;63887;53.656;9.810;2022-11-15T08:09:03;38.00;;;25.90;;
4272;SDS011;63887;53.656;9.810;2022-11-15T08:11:29;36.67;;;25.03;;
4272;SDS011;63887;53.656;9.810;2022-11-15T08:13:56;39.20;;;27.13;;
4272;SDS011;63887;53.656;9.810;2022-11-15T08:16:22;35.20;;;24.40;;
4272;SDS011;63887;53.656;9.810;2022-11-15T08:18:50;33.60;;;24.10;;
4272;SDS011;63887;53.656;9.810;2022-11-15T08:21:17;51.37;;;26.03;;
4272;SDS011;63887;53.656;9.810;2022-11-15T08:23:45;40.03;;;27.00;;
4272;SDS011;63887;53.656;9.810;2022-11-15T08:26:12;40.37;;;26.13;;
4272;SDS011;63887;53.656;9.810;2022-11-15T08:28:39;41.77;;;27.27;;
4272;SDS011;63887;53.656;9.810;2022-11-15T08:31:05;36.33;;;25.47;;
4272;SDS011;63887;53.656;9.810;2022-11-15T08:33:32;36.07;;;26.93;;
4272;SDS011;63887;53.656;9.810;2022-11-15T08:36:00;37.57;;;26.57;;
4272;SDS011;63887;53.656;9.810;2022-11-15T08:38:27;36.43;;;26.23;;
4272;SDS011;63887;53.656;9.810;2022-11-15T08:40:58;40.13;;;24.97;;
4272;SDS011;63887;53.656;9.810;2022-11-15T08:43:27;38.10;;;26.87;;
4272;SDS011;63887;53.656;9.810;2022-11-15T08:45:55;38.30;;;27.77;;
4272;SDS011;63887;53.656;9.810;2022-11-15T08:48:22;35.27;;;25.00;;
4272;SDS011;63887;53.656;9.810;2022-11-15T08:50:48;38.67;;;27.83;;
4272;SDS011;63887;53.656;9.810;2022-11-15T08:53:16;33.13;;;24.77;;
4272;SDS011;63887;53.656;9.810;2022-11-15T08:55:43;33.20;;;26.53;;
4272;SDS011;63887;53.656;9.810;2022-11-15T08:58:09;34.73;;;25.43;;
4272;SDS011;63887;53.656;9.810;2022-11-15T09:00:35;36.40;;;24.67;;
4272;SDS011;63887;53.656;9.810;2022-11-15T09:03:03;37.47;;;26.50;;
4272;SDS011;63887;53.656;9.810;2022-11-15T09:05:30;42.00;;;25.70;;
4272;SDS011;63887;53.656;9.810;2022-11-15T09:07:56;39.03;;;26.40;;
4272;SDS011;63887;53.656;9.810;2022-11-15T09:10:24;34.60;;;24.83;;
4272;SDS011;63887;53.656;9.810;2022-11-15T09:12:51;38.37;;;25.60;;
4272;SDS011;63887;53.656;9.810;2022-11-15T09:15:17;37.97;;;25.80;;
4272;SDS011;63887;53.656;9.810;2022-11-15T09:17:44;45.33;;;26.77;;
4272;SDS011;63887;53.656;9.810;2022-11-15T09:20:11;29.27;;;24.40;;
4272;SDS011;63887;53.656;9.810;2022-11-15T09:22:37;30.40;;;25.27;;
4272;SDS011;63887;53.656;9.810;2022-11-15T09:25:05;39.30;;;26.93;;
4272;SDS011;63887;53.656;9.810;2022-11-15T09:27:33;47.27;;;26.97;;
4272;SDS011;63887;53.656;9.810;2022-11-15T09:30:00;37.03;;;25.27;;
4272;SDS011;63887;53.656;9.810;2022-11-15T09:32:27;35.73;;;25.13;;
4272;SDS011;63887;53.656;9.810;2022-11-15T09:34:55;37.90;;;24.30;;
4272;SDS011;63887;53.656;9.810;2022-11-15T09:37:21;46.10;;;27.03;;
4272;SDS011;63887;53.656;9.810;2022-11-15T09:39:48;36.73;;;25.57;;
4272;SDS011;63887;53.656;9.810;2022-11-15T09:45:17;33.50;;;24.23;;
4272;SDS011;63887;53.656;9.810;2022-11-15T09:47:49;36.40;;;26.53;;
4272;SDS011;63887;53.656;9.810;2022-11-15T09:50:29;33.67;;;26.07;;
4272;SDS011;63887;53.656;9.810;2022-11-15T09:53:00;36.30;;;26.17;;
4272;SDS011;63887;53.656;9.810;2022-11-15T09:55:30;36.53;;;23.83;;
4272;SDS011;63887;53.656;9.810;2022-11-15T09:58:03;34.27;;;24.93;;
4272;SDS011;63887;53.656;9.810;2022-11-15T10:00:37;31.00;;;24.60;;
4272;SDS011;63887;53.656;9.810;2022-11-15T10:03:10;33.10;;;24.53;;
4272;SDS011;63887;53.656;9.810;2022-11-15T10:05:39;37.23;;;26.13;;
4272;SDS011;63887;53.656;9.810;2022-11-15T10:08:11;35.70;;;24.50;;
4272;SDS011;63887;53.656;9.810;2022-11-15T10:10:47;31.97;;;23.80;;
4272;SDS011;63887;53.656;9.810;2022-11-15T10:13:18;38.83;;;23.67;;
4272;SDS011;63887;53.656;9.810;2022-11-15T10:15:48;29.40;;;23.50;;
4272;SDS011;63887;53.656;9.810;2022-11-15T10:18:17;27.13;;;23.33;;
4272;SDS011;63887;53.656;9.810;2022-11-15T10:20:52;30.10;;;25.10;;
4272;SDS011;63887;53.656;9.810;2022-11-15T10:23:24;30.40;;;24.10;;
4272;SDS011;63887;53.656;9.810;2022-11-15T10:25:51;34.60;;;24.13;;
4272;SDS011;63887;53.656;9.810;2022-11-15T10:28:23;29.80;;;24.87;;
4272;SDS011;63887;53.656;9.810;2022-11-15T10:30:53;31.30;;;24.17;;
4272;SDS011;63887;53.656;9.810;2022-11-15T10:33:24;32.60;;;24.20;;
4272;SDS011;63887;53.656;9.810;2022-11-15T10:36:18;29.63;;;23.23;;
4272;SDS011;63887;53.656;9.810;2022-11-15T10:38:51;32.20;;;25.10;;
4272;SDS011;63887;53.656;9.810;2022-11-15T10:41:22;37.13;;;23.00;;
4272;SDS011;63887;53.656;9.810;2022-11-15T10:44:11;35.70;;;24.23;;
4272;SDS011;63887;53.656;9.810;2022-11-15T10:46:44;32.77;;;23.43;;
4272;SDS011;63887;53.656;9.810;2022-11-15T10:49:14;45.37;;;25.60;;
4272;SDS011;63887;53.656;9.810;2022-11-15T10:51:43;38.50;;;25.03;;
4272;SDS011;63887;53.656;9.810;2022-11-15T10:54:12;30.57;;;25.03;;
4272;SDS011;63887;53.656;9.810;2022-11-15T10:56:47;41.10;;;23.10;;
4272;SDS011;63887;53.656;9.810;2022-11-15T10:59:20;34.60;;;24.50;;
4272;SDS011;63887;53.656;9.810;2022-11-15T11:01:50;32.07;;;24.03;;
4272;SDS011;63887;53.656;9.810;2022-11-15T11:04:16;36.07;;;23.33;;
4272;SDS011;63887;53.656;9.810;2022-11-15T11:06:47;39.90;;;24.20;;
4272;SDS011;63887;53.656;9.810;2022-11-15T11:09:28;30.60;;;23.53;;
4272;SDS011;63887;53.656;9.810;2022-11-15T11:11:58;29.57;;;23.70;;
4272;SDS011;63887;53.656;9.810;2022-11-15T11:14:27;30.90;;;24.03;;
4272;SDS011;63887;53.656;9.810;2022-11-15T11:16:59;34.50;;;22.13;;
4272;SDS011;63887;53.656;9.810;2022-11-15T11:19:33;32.50;;;23.43;;
4272;SDS011;63887;53.656;9.810;2022-11-15T11:22:11;29.00;;;23.63;;
4272;SDS011;63887;53.656;9.810;2022-11-15T11:24:47;26.50;;;21.90;;
4272;SDS011;63887;53.656;9.810;2022-11-15T11:27:26;37.53;;;22.83;;
4272;SDS011;63887;53.656;9.810;2022-11-15T11:30:06;39.13;;;24.53;;
4272;SDS011;63887;53.656;9.810;2022-11-15T11:32:42;28.80;;;23.50;;
4272;SDS011;63887;53.656;9.810;2022-11-15T11:35:17;29.80;;;24.67;;
4272;SDS011;63887;53.656;9.810;2022-11-15T11:37:49;31.87;;;24.20;;
4272;SDS011;63887;53.656;9.810;2022-11-15T11:40:20;25.03;;;20.93;;
4272;SDS011;63887;53.656;9.810;2022-11-15T11:42:55;34.13;;;22.97;;
4272;SDS011;63887;53.656;9.810;2022-11-15T11:45:40;28.23;;;21.60;;
4272;SDS011;63887;53.656;9.810;2022-11-15T11:48:21;29.90;;;23.93;;
4272;SDS011;63887;53.656;9.810;2022-11-15T11:50:57;29.37;;;22.20;;
4272;SDS011;63887;53.656;9.810;2022-11-15T11:53:34;31.37;;;23.30;;
4272;SDS011;63887;53.656;9.810;2022-11-15T11:56:09;32.73;;;20.93;;
4272;SDS011;63887;53.656;9.810;2022-11-15T11:58:43;25.83;;;21.67;;
4272;SDS011;63887;53.656;9.810;2022-11-15T12:01:14;27.43;;;22.10;;
4272;SDS011;63887;53.656;9.810;2022-11-15T12:03:44;26.87;;;22.80;;
4272;SDS011;63887;53.656;9.810;2022-11-15T12:06:19;24.77;;;20.83;;
4272;SDS011;63887;53.656;9.810;2022-11-15T12:08:52;30.53;;;22.33;;
4272;SDS011;63887;53.656;9.810;2022-11-15T12:11:26;27.53;;;21.90;;
4272;SDS011;63887;53.656;9.810;2022-11-15T12:14:00;23.97;;;20.70;;
4272;SDS011;63887;53.656;9.810;2022-11-15T12:16:31;23.37;;;20.97;;
4272;SDS011;63887;53.656;9.810;2022-11-15T12:19:00;22.80;;;20.40;;
4272;SDS011;63887;53.656;9.810;2022-11-15T12:21:31;33.13;;;21.87;;
4272;SDS011;63887;53.656;9.810;2022-11-15T12:24:04;21.97;;;19.43;;
4272;SDS011;63887;53.656;9.810;2022-11-15T12:26:35;24.10;;;20.70;;
4272;SDS011;63887;53.656;9.810;2022-11-15T12:29:09;26.77;;;20.40;;
4272;SDS011;63887;53.656;9.810;2022-11-15T12:31:43;25.87;;;20.43;;
4272;SDS011;63887;53.656;9.810;2022-11-15T12:34:16;25.03;;;21.33;;
4272;SDS011;63887;53.656;9.810;2022-11-15T12:37:00;27.77;;;20.70;;
4272;SDS011;63887;53.656;9.810;2022-11-15T12:42:41;27.37;;;21.63;;
4272;SDS011;63887;53.656;9.810;2022-11-15T12:45:23;22.67;;;19.80;;
4272;SDS011;63887;53.656;9.810;2022-11-15T12:47:54;24.30;;;20.60;;
4272;SDS011;63887;53.656;9.810;2022-11-15T12:50:53;21.50;;;18.97;;
4272;SDS011;63887;53.656;9.810;2022-11-15T12:53:26;27.60;;;20.93;;
4272;SDS011;63887;53.656;9.810;2022-11-15T12:56:08;24.23;;;18.40;;
4272;SDS011;63887;53.656;9.810;2022-11-15T12:58:45;23.23;;;20.17;;
4272;SDS011;63887;53.656;9.810;2022-11-15T13:04:23;25.80;;;19.33;;
4272;SDS011;63887;53.656;9.810;2022-11-15T13:06:52;27.93;;;19.40;;
4272;SDS011;63887;53.656;9.810;2022-11-15T13:15:34;24.60;;;18.40;;
4272;SDS011;63887;53.656;9.810;2022-11-15T13:20:59;30.27;;;19.70;;
4272;SDS011;63887;53.656;9.810;2022-11-15T13:23:25;26.50;;;19.70;;
4272;SDS011;63887;53.656;9.810;2022-11-15T13:26:02;26.10;;;18.80;;
4272;SDS011;63887;53.656;9.810;2022-11-15T13:28:36;21.07;;;18.97;;
4272;SDS011;63887;53.656;9.810;2022-11-15T13:31:17;25.40;;;19.10;;
4272;SDS011;63887;53.656;9.810;2022-11-15T13:33:48;23.30;;;18.43;;
4272;SDS011;63887;53.656;9.810;2022-11-15T13:36:18;24.70;;;18.73;;
4272;SDS011;63887;53.656;9.810;2022-11-15T13:38:53;23.87;;;18.03;;
4272;SDS011;63887;53.656;9.810;2022-11-15T13:41:22;23.40;;;17.60;;
4272;SDS011;63887;53.656;9.810;2022-11-15T13:43:49;25.03;;;18.90;;
4272;SDS011;63887;53.656;9.810;2022-11-15T13:46:17;19.97;;;17.80;;
4272;SDS011;63887;53.656;9.810;2022-11-15T13:48:46;25.03;;;17.43;;
4272;SDS011;63887;53.656;9.810;2022-11-15T13:51:18;19.43;;;17.37;;
4272;SDS011;63887;53.656;9.810;2022-11-15T13:53:52;20.83;;;17.30;;
4272;SDS011;63887;53.656;9.810;2022-11-15T13:56:22;19.57;;;17.67;;
4272;SDS011;63887;53.656;9.810;2022-11-15T13:58:50;18.47;;;16.20;;
4272;SDS011;63887;53.656;9.810;2022-11-15T14:01:19;19.40;;;17.30;;
4272;SDS011;63887;53.656;9.810;2022-11-15T14:03:47;20.90;;;18.70;;
4272;SDS011;63887;53.656;9.810;2022-11-15T14:06:22;22.20;;;16.50;;
4272;SDS011;63887;53.656;9.810;2022-11-15T14:09:04;23.70;;;18.40;;
4272;SDS011;63887;53.656;9.810;2022-11-15T14:11:49;25.30;;;16.17;;
4272;SDS011;63887;53.656;9.810;2022-11-15T14:14:19;19.93;;;17.90;;
4272;SDS011;63887;53.656;9.810;2022-11-15T14:16:48;21.83;;;16.57;;
4272;SDS011;63887;53.656;9.810;2022-11-15T14:19:36;24.43;;;19.20;;
4272;SDS011;63887;53.656;9.810;2022-11-15T14:22:08;18.90;;;16.90;;
4272;SDS011;63887;53.656;9.810;2022-11-15T14:24:43;18.33;;;16.37;;
4272;SDS011;63887;53.656;9.810;2022-11-15T14:27:18;22.77;;;16.60;;
4272;SDS011;63887;53.656;9.810;2022-11-15T14:29:46;20.87;;;18.53;;
4272;SDS011;63887;53.656;9.810;2022-11-15T14:32:14;25.83;;;17.80;;
4272;SDS011;63887;53.656;9.810;2022-11-15T14:34:41;20.13;;;18.03;;
4272;SDS011;63887;53.656;9.810;2022-11-15T14:37:11;26.97;;;18.50;;
4272;SDS011;63887;53.656;9.810;2022-11-15T14:39:45;24.23;;;18.93;;
4272;SDS011;63887;53.656;9.810;2022-11-15T14:42:12;26.30;;;17.57;;
4272;SDS011;63887;53.656;9.810;2022-11-15T14:44:38;17.90;;;16.17;;
4272;SDS011;63887;53.656;9.810;2022-11-15T14:47:04;20.30;;;16.90;;
4272;SDS011;63887;53.656;9.810;2022-11-15T14:49:31;18.87;;;17.10;;
4272;SDS011;63887;53.656;9.810;2022-11-15T14:51:57;19.80;;;17.20;;
4272;SDS011;63887;53.656;9.810;2022-11-15T14:54:25;19.57;;;17.63;;
4272;SDS011;63887;53.656;9.810;2022-11-15T14:56:52;19.03;;;17.10;;
4272;SDS011;63887;53.656;9.810;2022-11-15T14:59:18;25.47;;;20.10;;
4272;SDS011;63887;53.656;9.810;2022-11-15T15:01:45;26.43;;;18.67;;
4272;SDS011;63887;53.656;9.810;2022-11-15T15:04:11;19.10;;;17.10;;
4272;SDS011;63887;53.656;9.810;2022-11-15T15:06:37;22.10;;;18.70;;
4272;SDS011;63887;53.656;9.810;2022-11-15T15:09:04;24.23;;;17.30;;
4272;SDS011;63887;53.656;9.810;2022-11-15T15:11:32;23.30;;;18.63;;
4272;SDS011;63887;53.656;9.810;2022-11-15T15:13:59;23.60;;;18.83;;